createdAt,value
2022-11-15T00:01:17.649Z,6.83
2022-11-15T00:04:02.763Z,6.90
2022-11-15T00:06:48.490Z,6.85
2022-11-15T00:09:33.956Z,6.85
2022-11-15T00:12:19.112Z,6.73
2022-11-15T00:15:04.975Z,6.86
2022-11-15T00:17:50.494Z,6.82
2022-11-15T00:20:36.442Z,6.76
2022-11-15T00:23:21.377Z,6.78
2022-11-15T00:26:27.960Z,6.71
2022-11-15T00:29:50.973Z,6.62
2022-11-15T00:33:09.957Z,6.60
2022-11-15T00:36:06.570Z,6.53
2022-11-15T00:38:51.822Z,6.60
2022-11-15T00:41:37.332Z,6.77
2022-11-15T00:44:42.986Z,6.91
2022-11-15T00:47:41.560Z,7.02
2022-11-15T00:50:26.713Z,7.11
2022-11-15T00:53:12.211Z,7.16
2022-11-15T00:55:57.508Z,7.24
2022-11-15T00:58:42.905Z,7.35
2022-11-15T01:01:28.382Z,7.35
2022-11-15T01:04:13.673Z,7.35
2022-11-15T01:06:59.632Z,7.21
2022-11-15T01:09:44.959Z,7.17
2022-11-15T01:12:30.496Z,7.28
2022-11-15T01:15:35.987Z,7.24
2022-11-15T01:18:34.391Z,7.13
2022-11-15T01:21:40.019Z,7.02
2022-11-15T01:24:58.993Z,7.13
2022-11-15T01:27:57.367Z,6.98
2022-11-15T01:31:03.029Z,6.91
2022-11-15T01:34:22.973Z,7.01
2022-11-15T01:37:19.049Z,6.93
2022-11-15T01:40:04.717Z,6.89
2022-11-15T01:42:49.709Z,6.89
2022-11-15T01:45:35.152Z,6.82
2022-11-15T01:48:21.235Z,6.74
2022-11-15T01:51:10.616Z,6.67
2022-11-15T01:53:58.377Z,6.76
2022-11-15T01:57:04.368Z,6.67
2022-11-15T02:00:11.010Z,6.52
2022-11-15T02:03:09.461Z,6.51
2022-11-15T02:05:54.831Z,6.66
2022-11-15T02:08:40.084Z,6.77
2022-11-15T02:11:25.505Z,6.81
2022-11-15T02:14:11.885Z,6.94
2022-11-15T02:17:01.374Z,7.07
2022-11-15T02:19:55.987Z,7.03
2022-11-15T02:22:44.534Z,7.11
2022-11-15T02:25:50.012Z,6.78
2022-11-15T02:29:12.034Z,7.25
2022-11-15T02:32:29.187Z,7.35
2022-11-15T02:35:17.525Z,7.17
2022-11-15T02:38:07.957Z,7.09
2022-11-15T02:41:16.009Z,7.06
2022-11-15T02:44:46.044Z,7.23
2022-11-15T02:47:47.087Z,7.22
2022-11-15T02:50:33.982Z,6.97
2022-11-15T02:53:24.726Z,6.94
2022-11-15T02:56:11.529Z,7.18
2022-11-15T02:59:09.989Z,7.19
2022-11-15T03:02:14.211Z,7.10
2022-11-15T03:05:00.059Z,7.15
2022-11-15T03:08:02.117Z,7.37
2022-11-15T03:11:03.899Z,7.38
2022-11-15T03:13:54.408Z,7.54
2022-11-15T03:17:00.591Z,7.46
2022-11-15T03:20:07.041Z,7.55
2022-11-15T03:23:07.944Z,7.52
2022-11-15T03:26:14.043Z,7.54
2022-11-15T03:29:37.050Z,7.37
2022-11-15T03:32:38.010Z,7.32
2022-11-15T03:35:24.757Z,7.41
2022-11-15T03:38:27.041Z,7.70
2022-11-15T03:41:24.655Z,7.73
2022-11-15T03:44:30.972Z,7.74
2022-11-15T03:47:37.381Z,7.88
2022-11-15T03:50:23.902Z,7.71
2022-11-15T03:53:09.487Z,7.77
2022-11-15T03:55:55.039Z,7.78
2022-11-15T03:59:08.054Z,7.81
2022-11-15T04:02:27.047Z,7.93
2022-11-15T04:05:46.047Z,7.98
2022-11-15T04:08:36.184Z,7.97
2022-11-15T04:11:21.544Z,8.06
2022-11-15T04:14:06.792Z,7.80
2022-11-15T04:16:52.101Z,7.58
2022-11-15T04:19:57.528Z,7.64
2022-11-15T04:23:01.301Z,7.47
2022-11-15T04:26:08.095Z,7.61
2022-11-15T04:29:42.127Z,7.56
2022-11-15T04:32:40.702Z,7.46
2022-11-15T04:35:26.068Z,7.69
2022-11-15T04:38:12.161Z,7.65
2022-11-15T04:40:57.507Z,7.77
2022-11-15T04:43:42.632Z,7.91
2022-11-15T04:46:28.358Z,7.94
2022-11-15T04:49:13.670Z,7.99
2022-11-15T04:51:58.858Z,8.02
2022-11-15T04:54:44.322Z,7.96
2022-11-15T04:57:29.713Z,8.09
2022-11-15T05:00:43.168Z,8.10
2022-11-15T05:04:20.076Z,8.11
2022-11-15T05:07:18.823Z,8.19
2022-11-15T05:10:04.290Z,8.28
2022-11-15T05:12:49.858Z,8.33
2022-11-15T05:15:35.179Z,8.24
2022-11-15T05:18:23.528Z,8.22
2022-11-15T05:21:10.813Z,8.30
2022-11-15T05:24:16.076Z,8.32
2022-11-15T05:27:15.101Z,8.34
2022-11-15T05:30:20.138Z,8.35
2022-11-15T05:33:18.658Z,8.38
2022-11-15T05:36:06.270Z,8.32
2022-11-15T05:38:51.777Z,8.43
2022-11-15T05:41:40.426Z,8.41
2022-11-15T05:44:27.376Z,8.38
2022-11-15T05:47:16.113Z,8.50
2022-11-15T05:50:01.303Z,8.43
2022-11-15T05:53:07.139Z,8.37
2022-11-15T05:56:27.126Z,8.33
2022-11-15T05:59:25.685Z,8.44
2022-11-15T06:02:31.154Z,8.52
2022-11-15T06:05:43.292Z,8.41
2022-11-15T06:09:02.135Z,8.50
2022-11-15T06:12:21.155Z,8.31
2022-11-15T06:15:40.146Z,8.34
2022-11-15T06:18:38.888Z,8.35
2022-11-15T06:21:24.392Z,8.39
2022-11-15T06:24:30.141Z,8.45
2022-11-15T06:27:28.590Z,8.48
2022-11-15T06:30:34.153Z,8.53
2022-11-15T06:33:33.122Z,8.54
2022-11-15T06:36:19.044Z,8.47
2022-11-15T06:39:31.164Z,8.64
2022-11-15T06:42:23.267Z,8.62
2022-11-15T06:45:08.760Z,8.58
2022-11-15T06:48:14.184Z,8.68
2022-11-15T06:51:12.812Z,8.77
2022-11-15T06:54:18.162Z,8.79
2022-11-15T06:57:16.627Z,8.79
2022-11-15T07:00:02.193Z,8.77
2022-11-15T07:02:48.100Z,8.84
2022-11-15T07:05:33.318Z,8.74
2022-11-15T07:08:18.688Z,8.70
2022-11-15T07:11:24.192Z,8.74
2022-11-15T07:14:36.167Z,8.71
2022-11-15T07:17:42.859Z,8.82
2022-11-15T07:20:28.108Z,8.79
2022-11-15T07:23:13.909Z,8.56
2022-11-15T07:25:59.447Z,8.45
2022-11-15T07:29:05.187Z,8.59
2022-11-15T07:32:03.834Z,8.66
2022-11-15T07:34:49.362Z,8.62
2022-11-15T07:37:34.562Z,8.71
2022-11-15T07:40:19.994Z,8.81
2022-11-15T07:43:26.194Z,8.82
2022-11-15T07:46:24.633Z,8.93
2022-11-15T07:49:09.844Z,8.89
2022-11-15T07:52:15.183Z,8.73
2022-11-15T07:55:13.986Z,8.95
2022-11-15T07:58:06.488Z,8.94
2022-11-15T08:00:51.887Z,8.89
2022-11-15T08:03:37.500Z,9.19
2022-11-15T08:06:23.042Z,9.12
2022-11-15T08:09:29.291Z,9.19
2022-11-15T08:12:41.324Z,9.17
2022-11-15T08:16:00.213Z,9.05
2022-11-15T08:18:58.774Z,9.15
2022-11-15T08:21:44.111Z,9.18
2022-11-15T08:24:29.625Z,9.45
2022-11-15T08:27:35.337Z,9.37
2022-11-15T08:30:56.203Z,9.39
2022-11-15T08:33:55.188Z,9.23
2022-11-15T08:37:01.253Z,9.35
2022-11-15T08:39:59.801Z,9.04
2022-11-15T08:42:47.293Z,8.81
2022-11-15T08:45:34.734Z,8.79
2022-11-15T08:48:40.235Z,8.82
2022-11-15T08:51:38.709Z,8.74
2022-11-15T08:54:24.496Z,8.80
2022-11-15T08:57:10.541Z,9.06
2022-11-15T09:00:03.277Z,9.02
2022-11-15T09:03:19.313Z,9.22
2022-11-15T09:06:05.161Z,9.37
2022-11-15T09:08:50.634Z,9.64
2022-11-15T09:12:03.243Z,9.57
2022-11-15T09:14:54.910Z,9.52
2022-11-15T09:17:40.351Z,9.58
2022-11-15T09:20:26.258Z,9.50
2022-11-15T09:23:11.573Z,9.53
2022-11-15T09:26:04.246Z,9.50
2022-11-15T09:29:10.379Z,9.55
2022-11-15T09:32:33.747Z,9.66
2022-11-15T09:35:56.246Z,9.64
2022-11-15T09:38:54.814Z,9.64
2022-11-15T09:41:59.676Z,9.72
2022-11-15T09:45:04.809Z,9.79
2022-11-15T09:47:53.274Z,9.87
2022-11-15T09:50:39.841Z,9.64
2022-11-15T09:53:10.836Z,9.68
2022-11-15T09:55:48.775Z,9.82
2022-11-15T09:58:31.414Z,9.90
2022-11-15T10:01:01.545Z,10.02
2022-11-15T10:03:34.909Z,10.00
2022-11-15T10:06:37.289Z,10.18
2022-11-15T10:09:44.284Z,10.14
2022-11-15T10:12:26.246Z,10.09
2022-11-15T10:15:01.295Z,10.03
2022-11-15T10:18:00.629Z,10.14
2022-11-15T10:20:29.426Z,9.85
2022-11-15T10:23:05.680Z,9.92
2022-11-15T10:25:33.811Z,10.07
2022-11-15T10:28:20.866Z,10.20
2022-11-15T10:31:13.071Z,9.94
2022-11-15T10:34:13.694Z,10.09
2022-11-15T10:36:54.268Z,10.02
2022-11-15T10:39:55.363Z,9.91
2022-11-15T10:42:35.883Z,9.88
2022-11-15T10:45:02.728Z,9.99
2022-11-15T10:47:37.794Z,9.83
2022-11-15T10:50:25.013Z,9.90
2022-11-15T10:52:51.941Z,9.66
2022-11-15T10:55:18.770Z,9.57
2022-11-15T10:57:56.420Z,9.64
2022-11-15T11:00:53.393Z,9.82
2022-11-15T11:03:39.235Z,9.83
2022-11-15T11:06:26.328Z,9.73
2022-11-15T11:09:36.318Z,9.78
2022-11-15T11:12:42.361Z,9.74
2022-11-15T11:15:25.645Z,9.51
2022-11-15T11:17:55.443Z,9.46
2022-11-15T11:20:45.305Z,9.44
2022-11-15T11:23:35.368Z,9.21
2022-11-15T11:26:21.206Z,9.24
2022-11-15T11:29:28.363Z,9.15
2022-11-15T11:32:08.854Z,9.10
2022-11-15T11:34:54.326Z,9.13
2022-11-15T11:37:34.366Z,9.02
2022-11-15T11:40:11.753Z,8.99
2022-11-15T11:42:44.614Z,9.00
2022-11-15T11:45:29.950Z,9.05
2022-11-15T11:48:27.329Z,8.98
2022-11-15T11:51:34.329Z,9.09
2022-11-15T11:54:14.777Z,8.99
2022-11-15T11:56:44.210Z,9.03
2022-11-15T11:59:35.332Z,8.96
2022-11-15T12:02:36.065Z,9.02
2022-11-15T12:05:45.341Z,9.00
2022-11-15T12:08:44.849Z,9.07
2022-11-15T12:11:34.390Z,9.02
2022-11-15T12:14:35.346Z,9.18
2022-11-15T12:17:17.387Z,9.23
2022-11-15T12:20:04.374Z,9.10
2022-11-15T12:22:58.943Z,8.94
2022-11-15T12:25:25.726Z,9.05
2022-11-15T12:27:58.760Z,9.04
2022-11-15T12:30:58.353Z,9.10
2022-11-15T12:33:41.513Z,8.90
2022-11-15T12:36:13.331Z,8.84
2022-11-15T12:38:55.773Z,8.99
2022-11-15T12:41:24.331Z,8.99
2022-11-15T12:43:51.140Z,9.00
2022-11-15T12:46:44.421Z,8.82
2022-11-15T12:49:45.382Z,8.89
2022-11-15T12:52:46.359Z,8.88
2022-11-15T12:55:31.364Z,8.96
2022-11-15T12:58:18.212Z,8.91
2022-11-15T13:00:45.466Z,8.82
2022-11-15T13:03:37.388Z,8.61
2022-11-15T13:06:40.372Z,8.87
2022-11-15T13:09:27.026Z,8.92
2022-11-15T13:11:54.280Z,8.79
2022-11-15T13:14:59.400Z,8.88
2022-11-15T13:17:56.405Z,8.86
2022-11-15T13:20:46.015Z,8.89
2022-11-15T13:23:14.667Z,8.83
2022-11-15T13:25:54.174Z,8.99
2022-11-15T13:28:46.397Z,8.91
2022-11-15T13:31:43.646Z,8.94
2022-11-15T13:34:36.603Z,8.93
2022-11-15T13:37:04.251Z,9.08
2022-11-15T13:39:32.965Z,9.15
2022-11-15T13:42:00.337Z,9.21
2022-11-15T13:44:28.543Z,9.10
2022-11-15T13:47:35.433Z,9.21
2022-11-15T13:50:32.482Z,9.25
2022-11-15T13:53:33.390Z,9.13
2022-11-15T13:56:15.586Z,9.14
2022-11-15T13:59:02.435Z,9.12
2022-11-15T14:01:50.090Z,9.00
2022-11-15T14:04:19.867Z,8.98
2022-11-15T14:07:08.478Z,8.94
2022-11-15T14:10:09.409Z,8.97
2022-11-15T14:13:10.405Z,8.94
2022-11-15T14:16:29.390Z,8.96
2022-11-15T14:19:34.734Z,9.06
2022-11-15T14:22:23.309Z,9.16
2022-11-15T14:25:06.444Z,9.24
2022-11-15T14:27:33.542Z,9.38
2022-11-15T14:30:20.506Z,9.27
2022-11-15T14:33:01.035Z,9.20
2022-11-15T14:35:28.168Z,9.28
2022-11-15T14:37:55.038Z,9.37
2022-11-15T14:40:22.808Z,9.45
2022-11-15T14:42:50.315Z,9.48
2022-11-15T14:45:37.456Z,9.58
2022-11-15T14:48:38.438Z,9.52
2022-11-15T14:51:40.469Z,9.49
2022-11-15T14:54:41.466Z,9.55
2022-11-15T14:57:21.942Z,9.60
2022-11-15T14:59:48.913Z,9.55
2022-11-15T15:02:23.493Z,9.55
2022-11-15T15:05:11.604Z,9.65
2022-11-15T15:08:12.522Z,9.58
2022-11-15T15:10:52.931Z,9.55
2022-11-15T15:13:39.448Z,9.49
2022-11-15T15:16:40.421Z,9.35
2022-11-15T15:19:20.893Z,9.40
2022-11-15T15:21:47.806Z,9.39
2022-11-15T15:24:14.926Z,9.40
2022-11-15T15:26:41.918Z,9.45
2022-11-15T15:29:29.439Z,9.49
2022-11-15T15:32:30.460Z,9.52
2022-11-15T15:35:14.901Z,9.45
2022-11-15T15:38:02.470Z,9.38
2022-11-15T15:40:42.923Z,9.41
2022-11-15T15:43:10.404Z,9.46
2022-11-15T15:45:38.746Z,9.48
2022-11-15T15:48:06.371Z,9.38
2022-11-15T15:50:33.983Z,9.24
2022-11-15T15:53:01.653Z,9.22
2022-11-15T15:55:28.772Z,9.30
2022-11-15T15:57:55.759Z,9.30
2022-11-15T16:00:24.692Z,9.33
2022-11-15T16:02:52.133Z,9.22
2022-11-15T16:05:39.509Z,9.19
2022-11-15T16:09:00.462Z,9.17
2022-11-15T16:11:41.079Z,9.10
2022-11-15T16:14:28.463Z,9.13
2022-11-15T16:17:12.771Z,9.16
2022-11-15T16:19:39.601Z,9.12
2022-11-15T16:22:06.440Z,9.13
2022-11-15T16:24:33.260Z,9.21
2022-11-15T16:27:00.103Z,9.14
2022-11-15T16:29:47.551Z,8.96
2022-11-15T16:32:28.153Z,9.04
2022-11-15T16:34:57.166Z,8.93
2022-11-15T16:37:37.513Z,8.89
2022-11-15T16:40:38.683Z,8.87
2022-11-15T16:43:18.939Z,9.00
2022-11-15T16:45:45.926Z,9.02
2022-11-15T16:48:28.591Z,9.04
2022-11-15T16:50:59.361Z,8.98
2022-11-15T16:53:27.163Z,9.03
2022-11-15T16:55:55.401Z,9.04
2022-11-15T16:58:22.434Z,9.01
2022-11-15T17:00:53.802Z,8.99
2022-11-15T17:03:21.693Z,8.97
2022-11-15T17:05:48.498Z,8.95
2022-11-15T17:08:15.465Z,8.95
2022-11-15T17:10:43.187Z,9.00
2022-11-15T17:13:30.524Z,9.11
2022-11-15T17:16:31.525Z,9.06
2022-11-15T17:19:15.986Z,8.94
2022-11-15T17:21:43.911Z,8.95
2022-11-15T17:24:11.136Z,9.01
2022-11-15T17:26:40.817Z,8.98
2022-11-15T17:29:28.516Z,8.98
2022-11-15T17:32:09.481Z,9.02
2022-11-15T17:34:36.225Z,8.91
2022-11-15T17:37:03.114Z,8.96
2022-11-15T17:39:29.924Z,8.91
2022-11-15T17:41:56.963Z,8.91
2022-11-15T17:44:23.814Z,8.89
2022-11-15T17:46:50.601Z,8.89
2022-11-15T17:49:37.545Z,8.90
2022-11-15T17:52:18.001Z,8.56
2022-11-15T17:54:45.102Z,8.97
2022-11-15T17:57:12.065Z,8.98
2022-11-15T17:59:38.824Z,8.90
2022-11-15T18:02:06.669Z,8.79
2022-11-15T18:04:34.070Z,8.69
2022-11-15T18:07:21.704Z,8.72
2022-11-15T18:10:22.529Z,8.69
2022-11-15T18:13:03.256Z,8.69
2022-11-15T18:15:30.211Z,8.71
2022-11-15T18:18:17.523Z,8.71
2022-11-15T18:21:18.676Z,8.78
2022-11-15T18:24:00.219Z,8.81
2022-11-15T18:26:28.316Z,8.80
2022-11-15T18:29:18.551Z,8.92
2022-11-15T18:31:59.441Z,9.00
2022-11-15T18:34:28.919Z,9.13
2022-11-15T18:36:55.749Z,9.10
2022-11-15T18:39:22.494Z,9.08
2022-11-15T18:41:49.486Z,9.18
2022-11-15T18:44:16.482Z,9.19
2022-11-15T18:46:45.144Z,9.26
2022-11-15T18:49:13.246Z,9.30
2022-11-15T18:51:42.022Z,9.30
2022-11-15T18:54:10.319Z,9.41
2022-11-15T18:56:37.320Z,9.44
2022-11-15T18:59:05.252Z,9.39
2022-11-15T19:01:54.556Z,9.45
2022-11-15T19:04:35.207Z,9.43
2022-11-15T19:07:02.097Z,9.46
2022-11-15T19:09:33.025Z,9.01
2022-11-15T19:12:27.541Z,9.09
2022-11-15T19:15:28.873Z,9.07
2022-11-15T19:18:29.558Z,8.96
2022-11-15T19:21:14.903Z,8.84
2022-11-15T19:23:42.948Z,8.89
2022-11-15T19:26:14.223Z,9.00
2022-11-15T19:29:23.661Z,8.83
2022-11-15T19:32:05.285Z,8.82
2022-11-15T19:34:32.179Z,8.71
2022-11-15T19:36:58.971Z,8.76
2022-11-15T19:39:25.825Z,8.77
2022-11-15T19:41:52.761Z,8.86
2022-11-15T19:44:19.831Z,8.74
2022-11-15T19:46:46.811Z,8.65
2022-11-15T19:49:13.926Z,8.81
2022-11-15T19:51:42.740Z,8.79
2022-11-15T19:54:10.666Z,8.91
2022-11-15T19:56:38.265Z,9.12
2022-11-15T19:59:05.332Z,9.03
2022-11-15T20:01:52.591Z,8.81
2022-11-15T20:04:53.593Z,8.84
2022-11-15T20:07:21.029Z,8.88
2022-11-15T20:09:47.965Z,8.75
2022-11-15T20:12:35.610Z,8.80
2022-11-15T20:15:36.677Z,9.04
2022-11-15T20:18:38.647Z,9.08
2022-11-15T20:21:35.941Z,9.13
2022-11-15T20:24:02.851Z,9.17
2022-11-15T20:26:32.145Z,9.07
2022-11-15T20:29:19.622Z,8.99
2022-11-15T20:32:00.207Z,9.04
2022-11-15T20:34:27.643Z,8.99
2022-11-15T20:36:54.654Z,9.06
2022-11-15T20:39:21.500Z,8.99
2022-11-15T20:41:48.665Z,9.03
2022-11-15T20:44:15.648Z,9.13
2022-11-15T20:46:42.476Z,9.19
2022-11-15T20:49:09.473Z,9.22
2022-11-15T20:51:37.075Z,9.28
2022-11-15T20:54:04.238Z,9.21
2022-11-15T20:56:31.065Z,9.23
2022-11-15T20:58:57.956Z,9.28
2022-11-15T21:01:44.764Z,9.25
2022-11-15T21:04:45.650Z,9.28
2022-11-15T21:07:21.476Z,9.34
2022-11-15T21:10:13.654Z,9.39
2022-11-15T21:13:14.652Z,9.29
2022-11-15T21:16:10.348Z,9.30
2022-11-15T21:18:57.620Z,9.35
2022-11-15T21:21:58.660Z,9.37
2022-11-15T21:24:39.226Z,9.39
2022-11-15T21:27:05.972Z,9.39
2022-11-15T21:29:58.669Z,9.44
2022-11-15T21:32:59.656Z,9.40
2022-11-15T21:35:40.220Z,9.42
2022-11-15T21:38:06.941Z,9.41
2022-11-15T21:40:33.727Z,9.33
2022-11-15T21:43:00.606Z,9.31
2022-11-15T21:45:27.518Z,9.34
2022-11-15T21:47:54.350Z,9.27
2022-11-15T21:50:21.205Z,9.28
2022-11-15T21:52:47.996Z,9.26
2022-11-15T21:55:14.887Z,9.27
2022-11-15T21:57:41.703Z,9.32
2022-11-15T22:00:27.175Z,9.24
2022-11-15T22:02:54.000Z,9.30
2022-11-15T22:05:20.844Z,9.29
2022-11-15T22:08:07.667Z,9.34
2022-11-15T22:10:52.742Z,9.29
2022-11-15T22:13:19.623Z,9.28
2022-11-15T22:16:06.681Z,9.29
2022-11-15T22:19:07.641Z,9.28
2022-11-15T22:21:48.195Z,9.33
2022-11-15T22:24:15.327Z,9.32
2022-11-15T22:26:42.133Z,9.35
2022-11-15T22:29:28.675Z,9.37
2022-11-15T22:32:09.114Z,9.28
2022-11-15T22:34:35.866Z,9.32
2022-11-15T22:39:49.704Z,9.45
2022-11-15T22:42:20.824Z,9.39
2022-11-15T22:44:50.398Z,9.37
2022-11-15T22:47:18.156Z,9.41
2022-11-15T22:49:45.012Z,9.35
2022-11-15T22:52:11.864Z,9.33
2022-11-15T22:54:58.719Z,9.30
2022-11-15T22:57:59.679Z,9.26
2022-11-15T23:00:40.098Z,9.34
2022-11-15T23:03:26.809Z,9.37
2022-11-15T23:06:27.700Z,9.38
2022-11-15T23:09:09.956Z,9.32
2022-11-15T23:11:55.478Z,9.25
2022-11-15T23:14:22.302Z,9.35
2022-11-15T23:17:09.680Z,9.32
2022-11-15T23:20:01.089Z,9.30
2022-11-15T23:22:47.146Z,9.35
2022-11-15T23:25:14.176Z,9.36
2022-11-15T23:27:41.114Z,9.27
2022-11-15T23:30:46.722Z,9.27
2022-11-15T23:34:05.791Z,9.23
2022-11-15T23:36:46.127Z,9.27
2022-11-15T23:39:12.870Z,9.27
2022-11-15T23:41:39.853Z,9.21
2022-11-15T23:44:06.634Z,9.29
2022-11-15T23:46:33.872Z,9.29
2022-11-15T23:49:00.707Z,9.28
2022-11-15T23:51:27.605Z,9.33
2022-11-15T23:53:54.517Z,9.18
2022-11-15T23:56:22.071Z,9.25
2022-11-15T23:58:49.030Z,9.26
